createdAt,value
2023-03-15T00:02:30.564Z,79.58
2023-03-15T00:06:28.517Z,79.46
2023-03-15T00:10:26.439Z,79.39
2023-03-15T00:14:25.449Z,79.48
2023-03-15T00:18:23.577Z,79.51
2023-03-15T00:22:21.560Z,79.72
2023-03-15T00:26:19.368Z,80.07
2023-03-15T00:30:17.523Z,80.08
2023-03-15T00:34:15.388Z,79.89
2023-03-15T00:38:13.407Z,79.83
2023-03-15T00:42:11.466Z,79.93
2023-03-15T00:46:09.524Z,80.19
2023-03-15T00:50:07.325Z,80.20
2023-03-15T00:54:08.466Z,80.11
2023-03-15T00:58:06.441Z,79.95
2023-03-15T01:02:04.469Z,79.99
2023-03-15T01:06:02.396Z,79.92
2023-03-15T01:10:00.374Z,80.08
2023-03-15T01:13:58.373Z,80.19
2023-03-15T01:17:57.356Z,80.49
2023-03-15T01:21:55.339Z,79.95
2023-03-15T01:25:53.425Z,80.76
2023-03-15T01:29:51.389Z,81.02
2023-03-15T01:33:49.350Z,80.96
2023-03-15T01:37:47.356Z,80.95
2023-03-15T01:41:45.432Z,80.50
2023-03-15T01:46:05.316Z,80.52
2023-03-15T01:50:25.392Z,80.80
2023-03-15T01:54:38.284Z,81.06
2023-03-15T01:58:40.305Z,81.40
2023-03-15T02:02:40.326Z,81.20
2023-03-15T02:06:42.302Z,81.26
2023-03-15T02:10:52.284Z,81.23
2023-03-15T02:14:50.362Z,81.14
2023-03-15T02:18:49.379Z,81.24
2023-03-15T02:23:06.297Z,81.11
2023-03-15T02:27:09.272Z,81.10
2023-03-15T02:31:07.297Z,80.91
2023-03-15T02:35:05.229Z,80.73
2023-03-15T02:39:04.326Z,80.39
2023-03-15T02:43:10.213Z,80.00
2023-03-15T02:47:12.287Z,79.78
2023-03-15T02:51:11.289Z,79.43
2023-03-15T02:55:09.474Z,79.04
2023-03-15T02:59:07.354Z,78.71
2023-03-15T03:03:05.334Z,78.35
2023-03-15T03:07:03.214Z,77.05
2023-03-15T03:11:08.256Z,74.72
2023-03-15T03:15:06.249Z,74.66
2023-03-15T03:19:04.393Z,75.19
2023-03-15T03:23:02.190Z,75.50
2023-03-15T03:27:04.216Z,75.46
2023-03-15T03:31:02.382Z,75.46
2023-03-15T03:35:00.326Z,75.99
2023-03-15T03:39:00.199Z,77.16
2023-03-15T03:42:58.325Z,77.29
2023-03-15T03:46:56.125Z,77.80
2023-03-15T03:50:54.397Z,77.61
2023-03-15T03:54:52.216Z,77.50
2023-03-15T03:58:50.242Z,77.89
2023-03-15T04:02:53.223Z,78.04
2023-03-15T04:06:53.260Z,77.84
2023-03-15T04:10:56.287Z,76.79
2023-03-15T04:14:55.162Z,76.21
2023-03-15T04:18:56.215Z,76.10
2023-03-15T04:22:57.175Z,76.50
2023-03-15T04:27:15.212Z,74.74
2023-03-15T04:31:26.241Z,73.66
2023-03-15T04:35:44.136Z,74.30
2023-03-15T04:40:00.247Z,75.10
2023-03-15T04:44:34.076Z,75.67
2023-03-15T04:48:50.273Z,76.35
2023-03-15T04:53:05.075Z,76.64
2023-03-15T04:57:22.092Z,77.18
2023-03-15T05:01:28.147Z,77.40
2023-03-15T05:05:56.329Z,77.34
2023-03-15T05:10:12.057Z,77.14
2023-03-15T05:14:28.234Z,76.89
2023-03-15T05:18:26.040Z,76.77
2023-03-15T05:22:37.067Z,76.45
2023-03-15T05:26:35.038Z,76.50
2023-03-15T05:30:45.102Z,76.35
2023-03-15T05:34:59.186Z,75.65
2023-03-15T05:39:06.072Z,75.59
2023-03-15T05:43:20.035Z,75.57
2023-03-15T05:47:36.029Z,75.25
2023-03-15T05:51:40.973Z,74.88
2023-03-15T05:55:47.991Z,75.48
2023-03-15T06:00:04.982Z,74.47
2023-03-15T06:04:06.056Z,73.63
2023-03-15T06:08:04.017Z,73.60
2023-03-15T06:12:04.100Z,73.54
2023-03-15T06:16:02.918Z,72.87
2023-03-15T06:20:07.201Z,72.64
2023-03-15T06:24:05.009Z,72.88
2023-03-15T06:28:02.968Z,72.56
2023-03-15T06:32:02.945Z,72.60
2023-03-15T06:36:01.963Z,72.60
2023-03-15T06:40:01.000Z,73.00
2023-03-15T06:43:58.923Z,72.65
2023-03-15T06:47:56.926Z,72.93
2023-03-15T06:51:56.017Z,73.43
2023-03-15T06:55:54.089Z,73.40
2023-03-15T06:59:40.581Z,73.24
2023-03-15T07:03:04.545Z,73.39
2023-03-15T07:06:29.705Z,73.21
2023-03-15T07:09:55.246Z,73.31
2023-03-15T07:13:20.748Z,73.34
2023-03-15T07:16:44.845Z,73.63
2023-03-15T07:20:09.369Z,73.77
2023-03-15T07:23:33.753Z,73.85
2023-03-15T07:26:57.898Z,73.75
2023-03-15T07:30:22.897Z,73.20
2023-03-15T07:33:46.757Z,72.42
2023-03-15T07:37:10.986Z,71.86
2023-03-15T07:40:35.759Z,71.73
2023-03-15T07:44:00.466Z,71.68
2023-03-15T07:47:24.501Z,71.85
2023-03-15T07:50:48.662Z,72.66
2023-03-15T07:54:12.646Z,73.73
2023-03-15T07:57:38.124Z,74.16
2023-03-15T08:01:03.130Z,74.02
2023-03-15T08:04:28.244Z,73.59
2023-03-15T08:07:52.282Z,73.36
2023-03-15T08:11:16.351Z,72.88
2023-03-15T08:14:40.463Z,73.19
2023-03-15T08:18:05.959Z,73.41
2023-03-15T08:21:33.882Z,72.77
2023-03-15T08:24:57.794Z,72.48
2023-03-15T08:28:22.058Z,72.27
2023-03-15T08:31:45.963Z,72.14
2023-03-15T08:35:15.188Z,71.04
2023-03-15T08:38:39.898Z,70.64
2023-03-15T08:42:03.810Z,70.56
2023-03-15T08:45:28.317Z,70.04
2023-03-15T08:48:53.179Z,70.05
2023-03-15T08:52:18.287Z,70.21
2023-03-15T08:55:42.601Z,70.21
2023-03-15T08:59:06.522Z,70.35
2023-03-15T09:02:30.622Z,70.18
2023-03-15T09:06:01.487Z,69.93
2023-03-15T09:09:26.517Z,69.29
2023-03-15T09:12:54.073Z,69.20
2023-03-15T09:16:19.824Z,69.21
2023-03-15T09:19:45.081Z,69.43
2023-03-15T09:23:10.923Z,69.78
2023-03-15T09:26:34.853Z,69.46
2023-03-15T09:29:58.831Z,68.71
2023-03-15T09:33:23.554Z,68.57
2023-03-15T09:36:53.159Z,68.05
2023-03-15T09:40:25.109Z,67.94
2023-03-15T09:44:40.574Z,67.42
2023-03-15T09:48:14.882Z,67.15
2023-03-15T09:51:58.445Z,65.78
2023-03-15T09:55:28.118Z,65.50
2023-03-15T09:58:59.134Z,65.06
2023-03-15T10:02:29.243Z,63.91
2023-03-15T10:06:16.264Z,63.47
2023-03-15T10:09:40.134Z,62.39
2023-03-15T10:13:37.531Z,61.89
2023-03-15T10:17:08.545Z,62.01
2023-03-15T10:20:35.831Z,61.72
2023-03-15T10:24:01.700Z,61.90
2023-03-15T10:27:48.961Z,61.45
2023-03-15T10:31:25.682Z,61.33
2023-03-15T10:34:56.786Z,61.58
2023-03-15T10:38:23.304Z,61.18
2023-03-15T10:41:52.321Z,61.55
2023-03-15T10:45:28.415Z,61.32
2023-03-15T10:49:09.345Z,61.63
2023-03-15T10:52:35.709Z,61.29
2023-03-15T10:56:08.151Z,59.72
2023-03-15T10:59:35.697Z,59.76
2023-03-15T11:03:06.981Z,59.36
2023-03-15T11:06:41.751Z,60.12
2023-03-15T11:10:08.081Z,60.84
2023-03-15T11:13:36.990Z,59.93
2023-03-15T11:17:03.487Z,59.51
2023-03-15T11:20:41.046Z,59.19
2023-03-15T11:24:08.659Z,59.33
2023-03-15T11:27:34.007Z,59.02
2023-03-15T11:31:00.982Z,59.00
2023-03-15T11:34:46.038Z,59.43
2023-03-15T11:38:19.950Z,60.10
2023-03-15T11:41:51.357Z,59.75
2023-03-15T11:45:40.415Z,59.94
2023-03-15T11:49:41.726Z,59.48
2023-03-15T11:53:07.516Z,59.31
2023-03-15T11:56:50.101Z,59.52
2023-03-15T12:00:27.037Z,59.91
2023-03-15T12:03:51.578Z,60.24
2023-03-15T12:07:24.053Z,59.34
2023-03-15T12:10:50.060Z,59.34
2023-03-15T12:14:29.412Z,59.39
2023-03-15T12:17:56.992Z,59.14
2023-03-15T12:21:24.750Z,59.72
2023-03-15T12:24:49.400Z,60.18
2023-03-15T12:28:24.621Z,60.69
2023-03-15T12:32:05.557Z,61.12
2023-03-15T12:35:39.810Z,60.86
2023-03-15T12:39:16.061Z,60.99
2023-03-15T12:42:40.138Z,60.18
2023-03-15T12:46:06.328Z,59.98
2023-03-15T12:49:30.460Z,60.02
2023-03-15T12:52:54.695Z,60.46
2023-03-15T12:56:32.754Z,60.05
2023-03-15T13:00:16.889Z,59.65
2023-03-15T13:03:42.010Z,59.42
2023-03-15T13:07:24.709Z,59.34
2023-03-15T13:11:07.313Z,59.79
2023-03-15T13:14:34.435Z,59.61
2023-03-15T13:18:04.661Z,58.86
2023-03-15T13:21:55.674Z,58.23
2023-03-15T13:25:35.615Z,57.91
2023-03-15T13:29:17.798Z,58.25
2023-03-15T13:32:44.572Z,58.10
2023-03-15T13:36:16.153Z,56.90
2023-03-15T13:39:40.074Z,56.91
2023-03-15T13:43:03.990Z,58.04
2023-03-15T13:46:31.764Z,58.69
2023-03-15T13:49:57.770Z,58.55
2023-03-15T13:53:39.491Z,57.44
2023-03-15T13:57:15.341Z,57.40
2023-03-15T14:00:39.438Z,57.82
2023-03-15T14:04:11.441Z,57.89
2023-03-15T14:07:41.827Z,58.57
2023-03-15T14:11:19.949Z,58.08
2023-03-15T14:14:51.980Z,57.88
2023-03-15T14:18:24.903Z,57.20
2023-03-15T14:22:05.067Z,57.72
2023-03-15T14:25:29.358Z,58.04
2023-03-15T14:29:02.240Z,57.46
2023-03-15T14:32:50.421Z,56.93
2023-03-15T14:36:56.306Z,56.96
2023-03-15T14:40:54.344Z,58.16
2023-03-15T14:44:52.335Z,58.61
2023-03-15T14:48:50.267Z,57.37
2023-03-15T14:52:49.304Z,56.91
2023-03-15T14:56:48.301Z,56.57
2023-03-15T15:00:47.489Z,56.25
2023-03-15T15:04:50.343Z,56.79
2023-03-15T15:08:49.409Z,56.22
2023-03-15T15:12:50.765Z,56.83
2023-03-15T15:16:54.546Z,57.35
2023-03-15T15:20:52.251Z,57.25
2023-03-15T15:24:51.420Z,57.70
2023-03-15T15:28:50.224Z,58.00
2023-03-15T15:32:48.407Z,58.42
2023-03-15T15:36:55.324Z,58.68
2023-03-15T15:40:54.284Z,58.92
2023-03-15T15:44:52.455Z,59.44
2023-03-15T15:48:50.228Z,59.69
2023-03-15T15:52:48.187Z,59.63
2023-03-15T15:56:54.220Z,59.91
2023-03-15T16:00:52.188Z,60.41
2023-03-15T16:04:50.231Z,60.71
2023-03-15T16:08:53.169Z,61.08
2023-03-15T16:12:51.198Z,61.25
2023-03-15T16:16:49.134Z,61.53
2023-03-15T16:20:47.225Z,61.69
2023-03-15T16:24:51.485Z,61.96
2023-03-15T16:28:49.233Z,62.10
2023-03-15T16:32:47.313Z,62.54
2023-03-15T16:36:48.924Z,63.02
2023-03-15T16:40:50.120Z,63.08
2023-03-15T16:44:48.250Z,63.29
2023-03-15T16:48:46.185Z,63.63
2023-03-15T16:52:44.171Z,63.60
2023-03-15T16:56:47.257Z,63.66
2023-03-15T17:00:45.239Z,63.74
2023-03-15T17:04:43.104Z,63.63
2023-03-15T17:08:41.203Z,62.78
2023-03-15T17:12:43.137Z,62.96
2023-03-15T17:16:41.203Z,63.02
2023-03-15T17:20:41.220Z,63.17
2023-03-15T17:24:39.848Z,63.75
2023-03-15T17:28:39.219Z,62.94
2023-03-15T17:32:37.424Z,62.29
2023-03-15T17:36:38.359Z,62.70
2023-03-15T17:40:42.164Z,63.11
2023-03-15T17:44:40.146Z,63.30
2023-03-15T17:48:38.289Z,63.78
2023-03-15T17:52:35.991Z,64.07
2023-03-15T17:56:37.739Z,64.00
2023-03-15T18:00:35.299Z,64.19
2023-03-15T18:04:35.272Z,64.49
2023-03-15T18:08:35.329Z,64.79
2023-03-15T18:12:34.611Z,64.78
2023-03-15T18:16:32.264Z,64.91
2023-03-15T18:20:31.281Z,65.22
2023-03-15T18:24:31.627Z,65.32
2023-03-15T18:28:29.274Z,65.49
2023-03-15T18:32:27.041Z,65.54
2023-03-15T18:36:26.028Z,65.71
2023-03-15T18:40:26.030Z,65.75
2023-03-15T18:44:25.155Z,65.90
2023-03-15T18:48:34.269Z,65.86
2023-03-15T18:52:38.036Z,65.89
2023-03-15T18:56:40.953Z,65.80
2023-03-15T19:00:44.995Z,65.68
2023-03-15T19:04:43.088Z,65.67
2023-03-15T19:08:41.021Z,65.68
2023-03-15T19:12:38.901Z,65.40
2023-03-15T19:16:38.060Z,65.64
2023-03-15T19:20:37.091Z,65.61
2023-03-15T19:24:36.084Z,65.73
2023-03-15T19:28:34.964Z,65.86
2023-03-15T19:32:32.916Z,66.23
2023-03-15T19:36:31.950Z,66.65
2023-03-15T19:40:31.262Z,67.16
2023-03-15T19:44:28.978Z,67.09
2023-03-15T19:48:27.007Z,67.34
2023-03-15T19:52:24.819Z,67.50
2023-03-15T19:56:23.999Z,67.74
2023-03-15T20:00:23.209Z,67.80
2023-03-15T20:04:21.269Z,67.59
2023-03-15T20:08:20.831Z,67.56
2023-03-15T20:12:22.911Z,67.62
2023-03-15T20:16:20.917Z,67.74
2023-03-15T20:20:21.162Z,67.85
2023-03-15T20:24:18.857Z,68.19
2023-03-15T20:28:16.945Z,68.54
2023-03-15T20:32:14.792Z,68.61
2023-03-15T20:36:13.870Z,68.92
2023-03-15T20:40:17.261Z,69.10
2023-03-15T20:44:14.918Z,69.19
2023-03-15T20:48:12.886Z,69.57
2023-03-15T20:52:11.894Z,69.77
2023-03-15T20:56:09.759Z,69.99
2023-03-15T21:00:08.972Z,70.08
2023-03-15T21:04:06.845Z,69.88
2023-03-15T21:08:04.924Z,70.48
2023-03-15T21:12:03.759Z,70.63
2023-03-15T21:16:02.231Z,70.65
2023-03-15T21:20:01.836Z,70.56
2023-03-15T21:24:00.832Z,70.65
2023-03-15T21:28:01.153Z,70.71
2023-03-15T21:31:58.927Z,70.72
2023-03-15T21:35:57.996Z,70.88
2023-03-15T21:39:55.796Z,70.95
2023-03-15T21:43:56.691Z,71.02
2023-03-15T21:47:54.730Z,71.16
2023-03-15T21:51:52.754Z,71.34
2023-03-15T21:55:52.704Z,71.48
2023-03-15T21:59:50.652Z,71.74
2023-03-15T22:03:50.679Z,72.04
2023-03-15T22:07:49.274Z,72.10
2023-03-15T22:11:49.804Z,72.25
2023-03-15T22:15:47.652Z,72.37
2023-03-15T22:19:46.717Z,72.43
2023-03-15T22:23:46.632Z,72.55
2023-03-15T22:27:44.703Z,72.67
2023-03-15T22:31:44.645Z,72.74
2023-03-15T22:35:42.719Z,72.93
2023-03-15T22:39:40.627Z,72.92
2023-03-15T22:43:38.729Z,73.23
2023-03-15T22:47:36.607Z,73.48
2023-03-15T22:51:34.657Z,73.54
2023-03-15T22:55:33.638Z,73.74
2023-03-15T22:59:35.680Z,73.69
2023-03-15T23:03:33.670Z,73.62
2023-03-15T23:07:31.647Z,73.64
2023-03-15T23:11:29.564Z,73.59
2023-03-15T23:15:27.640Z,73.42
2023-03-15T23:19:25.553Z,73.50
2023-03-15T23:23:23.743Z,73.42
2023-03-15T23:27:21.561Z,73.38
2023-03-15T23:31:20.640Z,73.34
2023-03-15T23:35:21.568Z,73.33
2023-03-15T23:39:19.632Z,73.33
2023-03-15T23:43:17.553Z,73.45
2023-03-15T23:47:15.609Z,73.51
2023-03-15T23:51:13.587Z,73.58
2023-03-15T23:55:11.656Z,73.61
2023-03-15T23:59:09.563Z,73.57
